METAR AND TAF INFORMATION
METAR FOR LIRF
ADDS - METARS form results

(2314 UTC 22 May 2018)
Data provider http://aviationweather.gov/adds/metars/
 
METAR text: LIRF 222250Z 15005KT 130V200 9999 -RA SCT025 SCT045 18/17 Q1015 NOSIG
Conditions at: LIRF (ROME/FIUMICINO , IT) observed 2250 UTC 22 May 2018
Temperature: 18.0°C (64°F)
Dewpoint: 17.0°C (63°F) [RH = 94%]
Pressure (altimeter): 29.97 inches Hg (1015.0 mb)
Winds: from the SSE (150 degrees) at 6 MPH (5 knots; 2.6 m/s)
Visibility: 6 or more miles (10+ km)
Ceiling: at least 12,000 feet AGL
Clouds: scattered clouds at 2500 feet AGL
scattered clouds at 4500 feet AGL
Weather: -RA  (light rain)

METAR text: LIRF 222220Z 15004KT 9999 -RA SCT045 19/17 Q1015 NOSIG
Conditions at: LIRF (ROME/FIUMICINO , IT) observed 2220 UTC 22 May 2018
Temperature: 19.0°C (66°F)
Dewpoint: 17.0°C (63°F) [RH = 88%]
Pressure (altimeter): 29.97 inches Hg (1015.0 mb)
Winds: from the SSE (150 degrees) at 5 MPH (4 knots; 2.1 m/s)
Visibility: 6 or more miles (10+ km)
Ceiling: at least 12,000 feet AGL
Clouds: scattered clouds at 4500 feet AGL
Weather: -RA  (light rain)

Forecast for: LIRF (ROME/FIUMICINO , IT)
Text: TAF LIRF 221700Z 2218/2324 VRB05KT 9999 SCT030
Forecast period: 1800 UTC 22 May 2018 to 0800 UTC 23 May 2018
Forecast type: FROM: standard forecast or significant change
Winds: variable direction winds at 6 MPH (5 knots; 2.6 m/s)
Visibility: 6 or more miles (10+ km)
Clouds: scattered clouds at 3000 feet AGL
Weather: no significant weather forecast for this period
Forecast for: LIRF (ROME/FIUMICINO , IT)
Text: TAF LIRF 221700Z 2218/2324 VRB05KT 9999 SCT030
Forecast period: 1800 UTC 22 May 2018 to 0800 UTC 23 May 2018
Forecast type: FROM: standard forecast or significant change
Winds: variable direction winds at 6 MPH (5 knots; 2.6 m/s)
Visibility: 6 or more miles (10+ km)
Clouds: scattered clouds at 3000 feet AGL
Weather: no significant weather forecast for this period
Forecast for: LIRF (ROME/FIUMICINO , IT)
Text: TAF LIRF 221700Z 2218/2324 VRB05KT 9999 SCT030
Forecast period: 0800 UTC 23 May 2018 to 0000 UTC 24 May 2018
Forecast type: BECOMING: Conditions expected to become as follows by 1100 UTC 23 May 2018
Winds: from the W (280 degrees) at 14 MPH (12 knots; 6.2 m/s)
Visibility: 6 or more miles (10+ km)
Clouds: scattered clouds at 3000 feet AGL
Weather: no significant weather forecast for this period
Forecast for: LIRF (ROME/FIUMICINO , IT)
Text: TAF LIRF 221700Z 2218/2324 VRB05KT 9999 SCT030
Forecast period: 0800 UTC 23 May 2018 to 0000 UTC 24 May 2018
Forecast type: BECOMING: Conditions expected to become as follows by 1100 UTC 23 May 2018
Winds: from the W (280 degrees) at 14 MPH (12 knots; 6.2 m/s)
Visibility: 6 or more miles (10+ km)
Clouds: scattered clouds at 3000 feet AGL
Weather: no significant weather forecast for this period

 AIRPORT MAP

 RUNWAY INFORMATION
Runway 07 Runway length 10849 ft Runway width 148 ft
Runway elevation 7 ft Runway displaced threshold 1365 ft Runway heading 70
Runway 25 Runway length 10849 ft Runway width 148 ft
Runway elevation 7 ft Runway displaced threshold 0 ft Runway heading 250
Runway 16C Runway length 11818 ft Runway width 148 ft
Runway elevation 11 ft Runway displaced threshold 0 ft Runway heading 163
Runway 34C Runway length 11818 ft Runway width 148 ft
Runway elevation 4 ft Runway displaced threshold 0 ft Runway heading 343
Runway 16L Runway length 12795 ft Runway width 197 ft
Runway elevation 14 ft Runway displaced threshold 0 ft Runway heading 163
Runway 34R Runway length 12795 ft Runway width 197 ft
Runway elevation 7 ft Runway displaced threshold 0 ft Runway heading 343
Runway 16R Runway length 12795 ft Runway width 197 ft
Runway elevation 7 ft Runway displaced threshold 0 ft Runway heading 163
Runway 34L Runway length 12795 ft Runway width 197 ft
Runway elevation 8 ft Runway displaced threshold 1053 ft Runway heading 343

 AIRPORT FREQUENCIES
Type ARR Name ROMA DIREC Frequency 119.2 MHZ
Type ATIS Name ATIS Frequency 114.9 MHZ
Type CLD Name FIUME RAMP Frequency 121.725 MHZ
Type GND Name FIUME GND/ Frequency 121.8 MHZ
Type TWR Name FIUME TWR Frequency 118.7 MHZ

 AIRPORT NEAR NAVIGATION AIDS
Type NDB Name Fiumicino Frequency 354 KHZ
Type NDB Name Fiumicino Frequency 421 KHZ
Type NDB Name Fiumicino Frequency 345 KHZ
Type VOR-DME Name Ostia Frequency 114900 KHZ
Type NDB Name Ostia Frequency 321 KHZ



Powered by Virtual Airlines Manager [v2.6.2]